createdAt,value
2022-12-18T00:00:19.700Z,-1.90
2022-12-18T00:03:02.333Z,-1.80
2022-12-18T00:05:32.200Z,-1.90
2022-12-18T00:08:04.877Z,-1.90
2022-12-18T00:10:42.207Z,-2.00
2022-12-18T00:13:18.542Z,-2.00
2022-12-18T00:15:45.792Z,-2.00
2022-12-18T00:18:16.089Z,-2.00
2022-12-18T00:20:46.530Z,-1.80
2022-12-18T00:23:13.984Z,-1.90
2022-12-18T00:25:41.033Z,-2.00
2022-12-18T00:28:08.594Z,-1.90
2022-12-18T00:30:36.282Z,-1.90
2022-12-18T00:33:11.250Z,-2.00
2022-12-18T00:35:41.231Z,-2.10
2022-12-18T00:38:17.466Z,-2.10
2022-12-18T00:40:47.287Z,-2.20
2022-12-18T00:43:23.643Z,-2.30
2022-12-18T00:46:04.993Z,-2.30
2022-12-18T00:48:42.102Z,-2.30
2022-12-18T00:51:12.466Z,-2.30
2022-12-18T00:53:44.368Z,-2.30
2022-12-18T00:56:14.511Z,-2.30
2022-12-18T00:58:41.982Z,-2.20
2022-12-18T01:01:16.693Z,-2.20
2022-12-18T01:03:47.949Z,-2.10
2022-12-18T01:06:16.738Z,-1.90
2022-12-18T01:08:55.623Z,-1.70
2022-12-18T01:11:28.298Z,-1.90
2022-12-18T01:14:07.467Z,-1.90
2022-12-18T01:16:50.566Z,-1.80
2022-12-18T01:19:20.796Z,-1.80
2022-12-18T01:21:51.649Z,-1.80
2022-12-18T01:24:36.915Z,-1.90
2022-12-18T01:27:06.807Z,-1.70
2022-12-18T01:29:34.179Z,-1.70
2022-12-18T01:32:06.040Z,-1.90
2022-12-18T01:34:33.482Z,-2.10
2022-12-18T01:37:03.495Z,-2.10
2022-12-18T01:39:30.733Z,-2.00
2022-12-18T01:42:04.004Z,-1.90
2022-12-18T01:45:00.792Z,-2.10
2022-12-18T01:47:48.853Z,-2.20
2022-12-18T01:53:25.682Z,-2.10
2022-12-18T01:56:04.027Z,-2.20
2022-12-18T01:58:38.435Z,-2.10
2022-12-18T02:01:05.701Z,-2.20
2022-12-18T02:03:38.628Z,-2.20
2022-12-18T02:06:13.902Z,-2.20
2022-12-18T02:09:01.067Z,-2.30
2022-12-18T02:11:53.927Z,-2.20
2022-12-18T02:14:39.468Z,-2.20
2022-12-18T02:17:18.992Z,-2.30
2022-12-18T02:20:00.091Z,-2.50
2022-12-18T02:22:46.411Z,-2.60
2022-12-18T02:25:36.855Z,-2.70
2022-12-18T02:28:07.386Z,-2.70
2022-12-18T02:30:39.499Z,-2.80
2022-12-18T02:33:26.363Z,-2.80
2022-12-18T02:35:55.608Z,-2.70
2022-12-18T02:38:23.527Z,-2.70
2022-12-18T02:40:52.988Z,-2.70
2022-12-18T02:43:22.994Z,-2.70
2022-12-18T02:46:02.412Z,-2.50
2022-12-18T02:48:33.622Z,-2.50
2022-12-18T02:51:25.499Z,-2.60
2022-12-18T02:54:07.247Z,-2.50
2022-12-18T02:56:52.427Z,-2.50
2022-12-18T02:59:51.042Z,-2.60
2022-12-18T03:02:43.029Z,-2.60
2022-12-18T03:05:53.742Z,-2.50
2022-12-18T03:08:27.191Z,-2.50
2022-12-18T03:11:35.484Z,-2.50
2022-12-18T03:14:03.907Z,-2.50
2022-12-18T03:20:22.757Z,-2.40
2022-12-18T03:22:57.815Z,-2.40
2022-12-18T03:25:28.233Z,-2.30
2022-12-18T03:28:00.824Z,-2.30
2022-12-18T03:30:30.715Z,-2.30
2022-12-18T03:33:48.687Z,-2.40
2022-12-18T03:36:16.415Z,-2.30
2022-12-18T03:38:43.739Z,-2.40
2022-12-18T03:41:24.844Z,-2.30
2022-12-18T03:44:36.595Z,-2.40
2022-12-18T03:47:27.309Z,-2.30
2022-12-18T03:50:18.831Z,-2.20
2022-12-18T03:52:58.672Z,-2.20
2022-12-18T03:55:29.913Z,-2.40
2022-12-18T03:57:57.795Z,-2.30
2022-12-18T04:00:34.258Z,-2.30
2022-12-18T04:03:03.480Z,-2.30
2022-12-18T04:05:33.298Z,-2.20
2022-12-18T04:08:02.312Z,-2.30
2022-12-18T04:10:29.739Z,-2.20
2022-12-18T04:13:00.927Z,-2.20
2022-12-18T04:15:28.246Z,-2.20
2022-12-18T04:17:57.540Z,-2.20
2022-12-18T04:20:25.026Z,-2.20
2022-12-18T04:22:52.155Z,-2.30
2022-12-18T04:25:19.482Z,-2.30
2022-12-18T04:27:46.496Z,-2.30
2022-12-18T04:30:13.907Z,-2.20
2022-12-18T04:32:52.373Z,-2.20
2022-12-18T04:35:25.072Z,-2.30
2022-12-18T04:37:57.162Z,-2.30
2022-12-18T04:40:24.383Z,-2.20
2022-12-18T04:42:54.422Z,-2.30
2022-12-18T04:45:24.156Z,-2.30
2022-12-18T04:47:51.541Z,-2.30
2022-12-18T04:50:18.625Z,-2.40
2022-12-18T04:52:46.006Z,-2.40
2022-12-18T04:55:16.432Z,-2.40
2022-12-18T04:57:43.479Z,-2.30
2022-12-18T05:00:11.486Z,-2.30
2022-12-18T05:02:38.749Z,-2.40
2022-12-18T05:05:12.089Z,-2.50
2022-12-18T05:07:39.406Z,-2.40
2022-12-18T05:10:11.989Z,-2.50
2022-12-18T05:12:59.419Z,-2.50
2022-12-18T05:15:45.805Z,-2.50
2022-12-18T05:18:13.194Z,-2.40
2022-12-18T05:20:40.419Z,-2.50
2022-12-18T05:23:07.711Z,-2.50
2022-12-18T05:25:35.055Z,-2.50
2022-12-18T05:30:57.804Z,-2.40
2022-12-18T05:33:30.123Z,-2.50
2022-12-18T05:36:10.271Z,-2.50
2022-12-18T05:38:45.665Z,-2.40
2022-12-18T05:41:13.147Z,-2.40
2022-12-18T05:43:41.750Z,-2.50
2022-12-18T05:46:14.335Z,-2.50
2022-12-18T05:48:59.954Z,-2.60
2022-12-18T05:51:30.353Z,-2.50
2022-12-18T05:54:11.112Z,-2.60
2022-12-18T05:56:53.365Z,-2.60
2022-12-18T05:59:34.437Z,-2.60
2022-12-18T06:02:04.194Z,-2.60
2022-12-18T06:04:34.259Z,-2.60
2022-12-18T06:07:17.735Z,-2.60
2022-12-18T06:12:38.147Z,-2.60
2022-12-18T06:15:08.877Z,-2.60
2022-12-18T06:17:47.457Z,-2.50
2022-12-18T06:20:24.704Z,-2.60
2022-12-18T06:23:59.990Z,-2.60
2022-12-18T06:26:45.516Z,-2.60
2022-12-18T06:29:26.631Z,-2.40
2022-12-18T06:31:53.909Z,-2.40
2022-12-18T06:34:26.888Z,-2.40
2022-12-18T06:36:56.438Z,-2.50
2022-12-18T06:39:45.902Z,-2.50
2022-12-18T06:42:36.434Z,-2.40
2022-12-18T06:45:03.859Z,-2.40
2022-12-18T06:47:54.867Z,-2.30
2022-12-18T06:50:31.807Z,-2.40
2022-12-18T06:53:13.477Z,-2.10
2022-12-18T06:55:41.015Z,-2.20
2022-12-18T06:58:23.253Z,-2.30
2022-12-18T07:01:07.292Z,-2.30
2022-12-18T07:03:37.212Z,-2.30
2022-12-18T07:06:05.149Z,-2.40
2022-12-18T07:08:33.292Z,-2.40
2022-12-18T07:11:12.013Z,-2.40
2022-12-18T07:13:39.982Z,-2.50
2022-12-18T07:16:18.330Z,-2.40
2022-12-18T07:18:49.776Z,-2.40
2022-12-18T07:21:20.700Z,-2.50
2022-12-18T07:23:49.359Z,-2.60
2022-12-18T07:26:21.819Z,-2.60
2022-12-18T07:28:51.657Z,-2.60
2022-12-18T07:31:28.390Z,-2.60
2022-12-18T07:34:11.108Z,-2.60
2022-12-18T07:36:41.299Z,-2.60
2022-12-18T07:39:08.886Z,-2.40
2022-12-18T07:41:42.467Z,-2.40
2022-12-18T07:44:21.193Z,-2.40
2022-12-18T07:46:54.199Z,-2.10
2022-12-18T07:49:26.617Z,-1.80
2022-12-18T07:51:56.889Z,-1.80
2022-12-18T07:54:27.665Z,-2.00
2022-12-18T07:56:54.821Z,-2.00
2022-12-18T07:59:22.094Z,-2.00
2022-12-18T08:01:49.605Z,-2.00
2022-12-18T08:04:17.130Z,-1.90
2022-12-18T08:06:47.831Z,-2.00
2022-12-18T08:09:15.799Z,-2.00
2022-12-18T08:11:43.458Z,-1.80
2022-12-18T08:14:11.856Z,-1.80
2022-12-18T08:16:39.079Z,-1.70
2022-12-18T08:19:08.699Z,-1.60
2022-12-18T08:21:35.965Z,-1.70
2022-12-18T08:24:03.197Z,-1.70
2022-12-18T08:26:32.419Z,-1.60
2022-12-18T08:29:01.234Z,-1.70
2022-12-18T08:31:29.848Z,-1.50
2022-12-18T08:33:57.805Z,-1.50
2022-12-18T08:36:25.854Z,-1.20
2022-12-18T08:38:54.926Z,-1.30
2022-12-18T08:41:22.486Z,-1.30
2022-12-18T08:44:30.706Z,-1.10
2022-12-18T08:47:00.046Z,-1.30
2022-12-18T08:49:27.737Z,-1.20
2022-12-18T08:52:01.143Z,-1.20
2022-12-18T08:54:28.546Z,-1.30
2022-12-18T08:56:55.998Z,-1.20
2022-12-18T08:59:26.029Z,-1.30
2022-12-18T09:01:58.367Z,-1.20
2022-12-18T09:04:28.185Z,-1.10
2022-12-18T09:06:55.283Z,-1.00
2022-12-18T09:09:24.682Z,-1.00
2022-12-18T09:12:20.562Z,-1.10
2022-12-18T09:15:23.566Z,-1.10
2022-12-18T09:17:51.237Z,-1.20
2022-12-18T09:20:19.178Z,-1.00
2022-12-18T09:23:04.574Z,-0.90
2022-12-18T09:28:37.476Z,-0.90
2022-12-18T09:31:41.454Z,-0.60
2022-12-18T09:34:18.214Z,-0.60
2022-12-18T09:36:55.295Z,-0.50
2022-12-18T09:46:18.751Z,-0.50
2022-12-18T09:48:52.439Z,-0.50
2022-12-18T09:51:21.553Z,-0.40
2022-12-18T09:54:06.789Z,-0.50
2022-12-18T09:56:41.233Z,-0.40
2022-12-18T09:59:25.125Z,-0.40
2022-12-18T10:01:55.745Z,-0.20
2022-12-18T10:04:23.288Z,-0.20
2022-12-18T10:07:09.274Z,-0.10
2022-12-18T10:10:06.334Z,0.00
2022-12-18T10:13:04.089Z,0.00
2022-12-18T10:16:04.304Z,0.10
2022-12-18T10:19:06.021Z,0.20
2022-12-18T10:21:46.332Z,0.30
2022-12-18T10:24:57.567Z,0.20
2022-12-18T10:27:49.182Z,0.20
2022-12-18T10:30:22.220Z,0.10
2022-12-18T10:33:26.858Z,0.10
2022-12-18T10:35:59.140Z,0.20
2022-12-18T10:38:44.974Z,0.00
2022-12-18T10:41:27.868Z,0.00
2022-12-18T10:44:29.415Z,0.00
2022-12-18T10:47:11.821Z,0.00
2022-12-18T10:49:51.783Z,0.00
2022-12-18T10:52:24.699Z,0.10
2022-12-18T10:54:59.460Z,0.00
2022-12-18T10:57:37.624Z,0.20
2022-12-18T11:00:42.965Z,0.20
2022-12-18T11:04:02.470Z,0.20
2022-12-18T11:06:34.174Z,0.20
2022-12-18T11:09:37.511Z,0.10
2022-12-18T11:12:17.186Z,0.20
2022-12-18T11:14:59.704Z,0.10
2022-12-18T11:17:47.638Z,0.10
2022-12-18T11:20:30.894Z,0.10
2022-12-18T11:23:02.753Z,0.10
2022-12-18T11:25:35.132Z,0.20
2022-12-18T11:28:26.359Z,0.20
2022-12-18T11:31:38.155Z,0.50
2022-12-18T11:34:30.685Z,0.50
2022-12-18T11:37:02.552Z,0.40
2022-12-18T11:39:41.162Z,0.30
2022-12-18T11:42:25.646Z,0.40
2022-12-18T11:45:02.523Z,0.30
2022-12-18T11:48:32.402Z,0.40
2022-12-18T11:51:03.380Z,0.50
2022-12-18T11:53:31.557Z,0.50
2022-12-18T11:56:45.928Z,0.60
2022-12-18T12:00:02.225Z,0.60
2022-12-18T12:03:34.915Z,0.50
2022-12-18T12:06:42.813Z,0.50
2022-12-18T12:09:51.387Z,0.70
2022-12-18T12:12:55.354Z,0.90
2022-12-18T12:15:37.424Z,0.50
2022-12-18T12:18:40.188Z,0.70
2022-12-18T12:45:50.757Z,0.50
2022-12-18T13:04:23.554Z,0.30
2022-12-18T13:07:45.946Z,0.40
2022-12-18T13:10:31.494Z,0.60
2022-12-18T13:13:56.907Z,0.60
2022-12-18T13:20:09.660Z,0.50
2022-12-18T13:26:07.211Z,0.40
2022-12-18T13:28:34.527Z,0.30
2022-12-18T13:31:05.147Z,0.40
2022-12-18T13:34:16.537Z,0.60
2022-12-18T13:36:38.154Z,0.60
2022-12-18T13:39:23.832Z,0.70
2022-12-18T13:42:34.781Z,0.80
2022-12-18T13:45:05.071Z,0.90
2022-12-18T13:47:41.483Z,0.90
2022-12-18T13:50:33.929Z,0.90
2022-12-18T13:53:05.606Z,0.80
2022-12-18T13:55:34.164Z,0.90
2022-12-18T13:58:06.730Z,1.00
2022-12-18T14:00:34.842Z,0.80
2022-12-18T14:03:02.468Z,0.90
2022-12-18T14:05:31.245Z,0.90
2022-12-18T14:08:07.108Z,0.80
2022-12-18T14:10:55.113Z,0.80
2022-12-18T14:13:47.703Z,0.80
2022-12-18T14:16:18.064Z,0.90
2022-12-18T14:18:53.616Z,0.80
2022-12-18T14:21:24.872Z,0.90
2022-12-18T14:24:39.579Z,0.90
2022-12-18T14:27:26.814Z,1.00
2022-12-18T14:29:54.215Z,0.90
2022-12-18T14:32:22.268Z,0.90
2022-12-18T14:34:55.229Z,0.90
2022-12-18T14:37:27.468Z,1.00
2022-12-18T14:40:10.988Z,0.90
2022-12-18T14:42:39.207Z,1.00
2022-12-18T14:45:52.763Z,1.20
2022-12-18T14:48:36.378Z,1.30
2022-12-18T14:51:08.560Z,1.30
2022-12-18T14:54:03.589Z,1.50
2022-12-18T14:56:36.843Z,1.50
2022-12-18T14:59:19.214Z,1.40
2022-12-18T15:02:01.352Z,1.60
2022-12-18T15:04:36.297Z,1.60
2022-12-18T15:07:20.841Z,1.50
2022-12-18T15:10:20.604Z,1.50
2022-12-18T15:12:56.729Z,1.50
2022-12-18T15:16:08.093Z,1.50
2022-12-18T15:18:42.496Z,1.40
2022-12-18T15:21:12.279Z,1.50
2022-12-18T15:23:50.000Z,1.40
2022-12-18T15:26:22.175Z,1.60
2022-12-18T15:28:58.906Z,1.70
2022-12-18T15:31:36.518Z,1.60
2022-12-18T15:34:10.015Z,1.50
2022-12-18T15:36:37.712Z,1.60
2022-12-18T15:39:06.880Z,1.70
2022-12-18T15:42:00.650Z,1.40
2022-12-18T15:44:28.254Z,1.50
2022-12-18T15:46:58.484Z,1.50
2022-12-18T15:49:25.739Z,1.60
2022-12-18T15:52:04.084Z,1.50
2022-12-18T15:55:14.373Z,1.50
2022-12-18T15:57:44.425Z,1.70
2022-12-18T16:00:14.062Z,1.70
2022-12-18T16:02:41.600Z,1.70
2022-12-18T16:05:21.683Z,1.80
2022-12-18T16:07:49.487Z,1.80
2022-12-18T16:10:16.796Z,1.80
2022-12-18T16:12:47.049Z,1.70
2022-12-18T16:15:24.974Z,1.80
2022-12-18T16:17:55.725Z,1.80
2022-12-18T16:20:35.670Z,1.80
2022-12-18T16:23:06.006Z,1.80
2022-12-18T16:25:33.116Z,1.80
2022-12-18T16:28:00.122Z,1.90
2022-12-18T16:30:33.084Z,1.90
2022-12-18T16:33:11.766Z,1.80
2022-12-18T16:35:39.473Z,2.00
2022-12-18T16:38:06.852Z,2.10
2022-12-18T16:40:54.446Z,2.20
2022-12-18T16:43:21.955Z,2.10
2022-12-18T16:45:52.097Z,2.00
2022-12-18T16:48:21.155Z,2.20
2022-12-18T16:50:48.613Z,2.10
2022-12-18T16:53:15.660Z,2.20
2022-12-18T16:55:42.732Z,2.20
2022-12-18T16:58:10.463Z,2.20
2022-12-18T17:00:41.367Z,2.10
2022-12-18T17:03:09.261Z,2.10
2022-12-18T17:05:36.627Z,2.20
2022-12-18T17:08:03.859Z,2.30
2022-12-18T17:10:31.818Z,2.30
2022-12-18T17:13:02.261Z,2.20
2022-12-18T17:15:29.509Z,2.30
2022-12-18T17:18:02.714Z,2.10
2022-12-18T17:20:31.620Z,2.10
2022-12-18T17:23:04.972Z,2.10
2022-12-18T17:25:32.443Z,2.20
2022-12-18T17:28:02.396Z,2.20
2022-12-18T17:30:30.628Z,2.20
2022-12-18T17:33:05.868Z,2.20
2022-12-18T17:35:37.305Z,2.20
2022-12-18T17:38:09.657Z,2.20
2022-12-18T17:40:46.551Z,2.10
2022-12-18T17:43:17.322Z,2.10
2022-12-18T17:45:50.217Z,2.00
2022-12-18T17:48:20.821Z,2.10
2022-12-18T17:50:48.273Z,2.20
2022-12-18T17:53:21.529Z,2.20
2022-12-18T17:56:01.106Z,2.30
2022-12-18T17:58:31.627Z,2.40
2022-12-18T18:00:58.802Z,2.40
2022-12-18T18:03:32.303Z,2.40
2022-12-18T18:06:03.973Z,2.50
2022-12-18T18:08:35.278Z,2.50
2022-12-18T18:11:33.968Z,2.50
2022-12-18T18:14:11.498Z,2.50
2022-12-18T18:16:41.805Z,2.40
2022-12-18T18:19:18.050Z,2.50
2022-12-18T18:21:48.331Z,2.40
2022-12-18T18:24:18.194Z,2.20
2022-12-18T18:26:47.005Z,2.30
2022-12-18T18:29:20.262Z,2.30
2022-12-18T18:31:48.211Z,2.40
2022-12-18T18:34:24.160Z,2.50
2022-12-18T18:36:51.950Z,2.50
2022-12-18T18:39:22.582Z,2.50
2022-12-18T18:41:52.844Z,2.50
2022-12-18T18:44:26.070Z,2.60
2022-12-18T18:46:58.375Z,2.50
2022-12-18T18:49:27.698Z,2.60
2022-12-18T18:52:01.947Z,2.70
2022-12-18T18:54:29.622Z,2.70
2022-12-18T18:57:19.938Z,2.70
2022-12-18T18:59:47.479Z,2.70
2022-12-18T19:02:15.985Z,2.80
2022-12-18T19:04:45.695Z,2.70
2022-12-18T19:07:18.520Z,2.70
2022-12-18T19:10:04.859Z,2.80
2022-12-18T19:12:52.125Z,2.80
2022-12-18T19:18:14.035Z,2.80
2022-12-18T19:21:08.396Z,2.80
2022-12-18T19:23:51.923Z,2.70
2022-12-18T19:26:30.151Z,2.50
2022-12-18T19:29:11.529Z,2.60
2022-12-18T19:31:48.153Z,2.70
2022-12-18T19:34:18.438Z,2.70
2022-12-18T19:36:59.948Z,2.80
2022-12-18T19:40:09.136Z,2.80
2022-12-18T19:43:20.115Z,2.80
2022-12-18T19:46:01.741Z,2.90
2022-12-18T19:48:28.992Z,2.80
2022-12-18T19:50:57.326Z,2.80
2022-12-18T19:53:24.519Z,2.80
2022-12-18T19:56:09.250Z,2.90
2022-12-18T19:58:39.992Z,2.90
2022-12-18T20:01:08.000Z,2.90
2022-12-18T20:03:37.089Z,2.90
2022-12-18T20:06:24.470Z,2.90
2022-12-18T20:08:52.759Z,3.00
2022-12-18T20:11:25.476Z,3.00
2022-12-18T20:13:53.012Z,3.10
2022-12-18T20:16:20.725Z,3.00
2022-12-18T20:18:59.797Z,2.90
2022-12-18T20:21:27.737Z,2.80
2022-12-18T20:23:56.142Z,2.90
2022-12-18T20:26:25.175Z,2.90
2022-12-18T20:28:56.317Z,2.90
2022-12-18T20:31:24.653Z,2.90
2022-12-18T20:34:07.096Z,3.00
2022-12-18T20:36:45.277Z,3.00
2022-12-18T20:39:16.775Z,3.10
2022-12-18T20:41:45.049Z,3.10
2022-12-18T20:44:22.022Z,3.00
2022-12-18T20:49:38.922Z,3.10
2022-12-18T20:52:12.974Z,3.00
2022-12-18T20:54:51.479Z,3.10
2022-12-18T20:57:22.784Z,3.30
2022-12-18T20:59:50.025Z,3.20
2022-12-18T21:02:17.783Z,3.10
2022-12-18T21:04:44.981Z,3.20
2022-12-18T21:07:12.066Z,3.10
2022-12-18T21:09:39.800Z,3.10
2022-12-18T21:12:35.168Z,3.20
2022-12-18T21:15:11.881Z,3.30
2022-12-18T21:17:44.278Z,3.50
2022-12-18T21:20:13.278Z,3.40
2022-12-18T21:22:44.748Z,3.40
2022-12-18T21:25:11.811Z,3.60
2022-12-18T21:27:44.748Z,3.50
2022-12-18T21:30:18.676Z,3.70
2022-12-18T21:33:13.946Z,3.60
2022-12-18T21:35:41.013Z,3.70
2022-12-18T21:38:21.033Z,3.70
2022-12-18T21:40:52.849Z,3.80
2022-12-18T21:46:28.692Z,3.90
2022-12-18T21:49:09.363Z,3.90
2022-12-18T21:54:53.260Z,4.00
2022-12-18T21:57:35.122Z,4.00
2022-12-18T22:06:06.777Z,4.20
2022-12-18T22:08:36.572Z,4.10
2022-12-18T22:11:12.324Z,4.10
2022-12-18T22:13:39.887Z,4.20
2022-12-18T22:16:07.221Z,4.20
2022-12-18T22:18:34.745Z,4.20
2022-12-18T22:21:07.728Z,4.30
2022-12-18T22:23:34.627Z,4.30
2022-12-18T22:26:01.555Z,4.40
2022-12-18T22:28:46.986Z,4.30
2022-12-18T22:31:13.977Z,4.40
2022-12-18T22:33:41.224Z,4.50
2022-12-18T22:36:08.706Z,4.50
2022-12-18T22:38:38.519Z,4.50
2022-12-18T22:41:05.486Z,4.50
2022-12-18T22:43:33.579Z,4.50
2022-12-18T22:46:00.836Z,4.50
2022-12-18T22:48:28.083Z,4.60
2022-12-18T22:50:59.382Z,4.70
2022-12-18T22:53:26.722Z,4.70
2022-12-18T22:56:01.029Z,4.70
2022-12-18T22:58:28.035Z,4.70
2022-12-18T23:00:55.170Z,4.80
2022-12-18T23:03:22.440Z,4.80
2022-12-18T23:05:51.735Z,4.80
2022-12-18T23:08:21.655Z,4.90
2022-12-18T23:10:53.279Z,4.90
2022-12-18T23:13:20.156Z,4.90
2022-12-18T23:15:47.470Z,4.90
2022-12-18T23:18:14.600Z,4.90
2022-12-18T23:20:41.778Z,4.90
2022-12-18T23:23:10.037Z,5.00
2022-12-18T23:25:39.658Z,5.10
2022-12-18T23:28:06.681Z,5.00
2022-12-18T23:30:37.341Z,5.00
2022-12-18T23:33:04.700Z,5.00
2022-12-18T23:35:32.188Z,5.00
2022-12-18T23:38:00.378Z,5.10
2022-12-18T23:40:31.318Z,5.10
2022-12-18T23:43:00.480Z,5.10
2022-12-18T23:45:27.384Z,5.10
2022-12-18T23:47:54.483Z,5.20
2022-12-18T23:50:22.764Z,5.20
2022-12-18T23:53:04.765Z,5.20
2022-12-18T23:55:33.539Z,5.20
2022-12-18T23:58:00.436Z,5.20
